Ellensburg, WA

7:03 PM PDT on May 25, 2015 (GMT -0700)
Bowers | | Change Station
CLOSE
Current Station
Airport
Location: Ellensburg,
Elevation: 1762 ft
Nearby Weather Stations

Elev 1762 ft 47.03 °N, 120.53 °W | Updated 10 minutes ago

Partly Cloudy
Partly Cloudy
67 °F
Feels Like 67 °F
N
17
Wind Variable Wind from WNW
Gusts 29 mph

Today
High -- | Low -- °F
--% Chance of Precip.
Yesterday
High -- | Low -- °F
Precip. -- in
5:16 AM 8:42 PM
First Quarter, 53% visible
Pressure 29.85 in
Visibility 10.0 miles
Clouds Clear
Dew Point 45 °F
Humidity 45%
Rainfall 0.00 in
Snow Depth Not available.
UV 1 out of 12
Pollen 8.50 out of 12
Air Quality Not available.
Flu Activity Sporadic
METAR KELN 260153Z AUTO 30015G25KT 10SM CLR 19/07 A2987 RMK AO2 PK WND 29027/0130 SLP108 T01940072

More Conditions Fewer Conditions

Pressure 29.85 in
Visibility 10.0 miles
Clouds Clear
Dew Point 45 °F
Humidity 45%
Rainfall 0.00 in
Snow Depth Not available.
UV 1 out of 12
Pollen 8.50 out of 12
Air Quality Not available.
Flu Activity Sporadic
METAR KELN 260153Z AUTO 30015G25KT 10SM CLR 19/07 A2987 RMK AO2 PK WND 29027/0130 SLP108 T01940072

More Conditions Fewer Conditions

10-Day Weather Forecast

Almanac

Astronomy

May. 25, 2015 Rise Set
Actual Time
Civil Twilight
Nautical Twilight
Astronomical Twilight
Moon
Length of Visible Light
Length of Day
Tomorrow will be .
, % of the Moon is Illuminated

Today's Extremes

State Highs State Lows

Community

WunderPhotos

Upload Photos

1,824,233 photos uploaded!

WunderBlogs® & News

Nearby

Air Quality

  Air Quality AQ Index Pollutant
Not available.

Snow Depth

Station Depth Elevation

Earthquake Activity

City Distance Mag. Time & Date
Minimum magnitude displayed is 2.5.

Coastal Water Temperatures

Place Temperature

Stations

Nearby Weather Stations

Station Location Temp. Windchill Dew Point Humidity Wind Precip. Elev Updated Type